createdAt,value
2019-05-29T00:00:36.377Z,10.30
2019-05-29T00:05:48.960Z,10.20
2019-05-29T00:10:52.571Z,10.10
2019-05-29T00:16:01.462Z,10.00
2019-05-29T00:21:27.544Z,10.00
2019-05-29T00:26:31.144Z,9.90
2019-05-29T00:31:39.151Z,9.80
2019-05-29T00:42:35.775Z,9.70
2019-05-29T00:47:51.759Z,9.60
2019-05-29T00:53:02.724Z,9.50
2019-05-29T00:58:12.809Z,9.50
2019-05-29T01:08:57.374Z,9.40
2019-05-29T01:14:19.395Z,9.40
2019-05-29T01:19:32.247Z,9.30
2019-05-29T01:24:43.325Z,9.30
2019-05-29T01:29:50.698Z,9.20
2019-05-29T01:35:02.159Z,9.10
2019-05-29T01:40:20.079Z,9.10
2019-05-29T01:45:29.899Z,9.20
2019-05-29T01:50:40.871Z,9.20
2019-05-29T01:55:54.433Z,9.10
2019-05-29T02:01:02.520Z,9.30
2019-05-29T02:06:24.017Z,9.30
2019-05-29T02:11:35.112Z,9.30
2019-05-29T02:21:52.095Z,9.10
2019-05-29T02:26:59.964Z,9.00
2019-05-29T02:32:23.611Z,8.90
2019-05-29T02:37:35.238Z,8.80
2019-05-29T02:42:50.534Z,8.80
2019-05-29T02:48:01.993Z,8.70
2019-05-29T02:53:09.844Z,8.70
2019-05-29T02:58:22.055Z,8.70
2019-05-29T03:03:39.109Z,8.80
2019-05-29T03:09:07.271Z,8.90
2019-05-29T03:14:04.591Z,8.90
2019-05-29T03:19:25.901Z,8.90
2019-05-29T03:24:48.181Z,9.00
2019-05-29T03:30:30.397Z,8.90
2019-05-29T03:35:17.523Z,8.90
2019-05-29T03:41:05.218Z,8.90
2019-05-29T03:45:53.005Z,8.90
2019-05-29T03:51:04.782Z,9.00
2019-05-29T03:57:49.282Z,9.00
2019-05-29T04:01:31.423Z,9.00
2019-05-29T04:06:47.064Z,8.90
2019-05-29T04:12:04.850Z,9.00
2019-05-29T04:17:02.542Z,9.00
2019-05-29T04:22:25.670Z,9.00
2019-05-29T04:27:24.931Z,8.90
2019-05-29T04:32:57.337Z,9.00
2019-05-29T04:37:57.841Z,8.90
2019-05-29T04:48:38.390Z,8.90
2019-05-29T04:53:43.627Z,8.80
2019-05-29T04:58:48.065Z,8.90
2019-05-29T05:03:52.474Z,8.80
2019-05-29T05:08:56.939Z,8.90
2019-05-29T05:14:01.956Z,9.00
2019-05-29T05:19:06.436Z,9.20
2019-05-29T05:24:30.227Z,9.30
2019-05-29T05:29:34.736Z,9.30
2019-05-29T05:34:39.178Z,9.50
2019-05-29T05:39:43.594Z,9.60
2019-05-29T05:44:47.967Z,9.80
2019-05-29T05:49:52.437Z,9.90
2019-05-29T05:55:16.510Z,10.10
2019-05-29T06:00:35.793Z,10.20
2019-05-29T06:05:40.431Z,10.30
2019-05-29T06:10:44.898Z,10.50
2019-05-29T06:15:49.325Z,10.60
2019-05-29T06:20:53.736Z,10.70
2019-05-29T06:26:00.158Z,10.70
2019-05-29T06:31:04.235Z,10.90
2019-05-29T06:36:08.699Z,11.10
2019-05-29T06:41:13.137Z,11.20
2019-05-29T06:46:17.640Z,11.40
2019-05-29T06:51:22.012Z,11.60
2019-05-29T06:56:26.559Z,11.70
2019-05-29T07:01:30.993Z,11.90
2019-05-29T07:06:36.517Z,11.90
2019-05-29T07:11:41.367Z,12.10
2019-05-29T07:16:55.960Z,12.20
2019-05-29T07:21:53.253Z,12.40
2019-05-29T07:26:57.732Z,12.50
2019-05-29T07:32:02.527Z,12.60
2019-05-29T07:37:07.470Z,12.80
2019-05-29T07:42:12.002Z,13.00
2019-05-29T07:47:16.511Z,13.20
2019-05-29T07:52:20.909Z,13.40
2019-05-29T07:57:25.337Z,13.60
2019-05-29T08:02:29.745Z,13.80
2019-05-29T08:07:34.203Z,13.80
2019-05-29T08:12:42.241Z,13.90
2019-05-29T08:17:46.068Z,14.10
2019-05-29T08:22:51.092Z,14.30
2019-05-29T08:27:55.767Z,14.50
2019-05-29T08:33:00.200Z,14.80
2019-05-29T08:38:04.753Z,14.80
2019-05-29T08:43:09.117Z,14.90
2019-05-29T08:48:13.528Z,15.20
2019-05-29T08:53:18.110Z,15.30
2019-05-29T08:58:22.505Z,15.20
2019-05-29T09:03:27.311Z,15.40
2019-05-29T09:08:31.704Z,15.50
2019-05-29T09:13:36.094Z,15.80
2019-05-29T09:18:40.664Z,16.10
2019-05-29T09:23:46.689Z,16.10
2019-05-29T09:28:51.106Z,16.10
2019-05-29T09:33:55.737Z,16.10
2019-05-29T09:39:00.133Z,16.40
2019-05-29T09:44:04.895Z,16.60
2019-05-29T09:49:09.415Z,16.70
2019-05-29T09:54:13.924Z,17.00
2019-05-29T09:59:18.527Z,17.10
2019-05-29T10:04:22.986Z,17.40
2019-05-29T10:09:27.367Z,17.60
2019-05-29T10:14:31.755Z,17.90
2019-05-29T10:19:57.117Z,18.00
2019-05-29T10:25:01.979Z,18.10
2019-05-29T10:30:08.623Z,18.40
2019-05-29T10:35:13.524Z,18.70
2019-05-29T10:40:18.517Z,19.10
2019-05-29T10:45:23.174Z,19.30
2019-05-29T10:50:27.611Z,19.50
2019-05-29T10:55:31.993Z,19.70
2019-05-29T11:00:38.887Z,20.30
2019-05-29T11:05:42.688Z,20.80
2019-05-29T11:10:47.928Z,21.10
2019-05-29T11:15:52.807Z,21.20
2019-05-29T11:20:57.636Z,21.30
2019-05-29T11:26:02.828Z,21.40
2019-05-29T11:31:07.252Z,21.90
2019-05-29T11:36:13.546Z,22.00
2019-05-29T11:41:25.667Z,22.30
2019-05-29T11:46:24.131Z,22.40
2019-05-29T11:51:28.515Z,22.30
2019-05-29T11:56:32.992Z,22.20
2019-05-29T12:01:52.253Z,22.80
2019-05-29T12:06:57.571Z,23.00
2019-05-29T12:12:02.256Z,23.10
2019-05-29T12:17:06.729Z,23.10
2019-05-29T12:22:11.194Z,22.90
2019-05-29T12:27:15.664Z,22.70
2019-05-29T12:32:20.093Z,22.70
2019-05-29T12:37:24.467Z,23.10
2019-05-29T12:42:29.097Z,23.10
2019-05-29T12:47:33.513Z,22.80
2019-05-29T12:52:37.985Z,22.70
2019-05-29T12:57:42.367Z,23.20
2019-05-29T13:02:46.893Z,23.80
2019-05-29T13:07:51.328Z,24.00
2019-05-29T13:13:02.362Z,24.50
2019-05-29T13:18:07.867Z,24.10
2019-05-29T13:23:08.587Z,23.80
2019-05-29T13:28:13.384Z,23.60
2019-05-29T13:33:17.764Z,23.50
2019-05-29T13:38:22.205Z,23.30
2019-05-29T13:43:26.628Z,23.00
2019-05-29T13:48:31.293Z,22.70
2019-05-29T13:53:35.724Z,22.70
2019-05-29T13:58:40.167Z,22.80
2019-05-29T14:03:44.604Z,23.10
2019-05-29T14:08:49.001Z,23.40
2019-05-29T14:13:53.395Z,23.20
2019-05-29T14:18:57.815Z,22.90
2019-05-29T14:24:08.713Z,23.10
2019-05-29T14:29:10.077Z,23.40
2019-05-29T14:34:14.553Z,24.00
2019-05-29T14:39:19.357Z,24.40
2019-05-29T14:44:23.781Z,24.80
2019-05-29T14:49:28.143Z,25.10
2019-05-29T14:54:41.901Z,24.70
2019-05-29T14:59:38.804Z,24.20
2019-05-29T15:04:43.273Z,23.70
2019-05-29T15:09:47.666Z,23.30
2019-05-29T15:14:52.109Z,23.40
2019-05-29T15:19:56.607Z,23.20
2019-05-29T15:25:11.293Z,22.70
2019-05-29T15:30:10.392Z,22.40
2019-05-29T15:35:19.276Z,22.30
2019-05-29T15:40:21.828Z,22.40
2019-05-29T15:45:26.299Z,22.70
2019-05-29T15:50:30.757Z,22.80
2019-05-29T15:55:35.224Z,22.60
2019-05-29T16:00:39.632Z,22.40
2019-05-29T16:05:44.025Z,22.10
2019-05-29T16:10:49.072Z,22.10
2019-05-29T16:15:53.481Z,22.40
2019-05-29T16:20:57.960Z,22.50
2019-05-29T16:26:02.405Z,22.30
2019-05-29T16:31:06.871Z,22.10
2019-05-29T16:36:12.551Z,21.80
2019-05-29T16:41:17.915Z,21.70
2019-05-29T16:46:24.469Z,21.70
2019-05-29T16:51:28.667Z,21.60
2019-05-29T16:56:33.128Z,21.60
2019-05-29T17:01:37.591Z,21.60
2019-05-29T17:06:42.054Z,21.50
2019-05-29T17:11:49.197Z,21.40
2019-05-29T17:16:53.702Z,21.30
2019-05-29T17:21:58.165Z,21.20
2019-05-29T17:27:02.774Z,21.10
2019-05-29T17:32:07.325Z,21.10
2019-05-29T17:37:11.814Z,21.30
2019-05-29T17:42:16.335Z,21.40
2019-05-29T17:47:21.494Z,21.50
2019-05-29T17:52:26.050Z,21.40
2019-05-29T17:57:30.645Z,21.20
2019-05-29T18:02:50.921Z,20.90
2019-05-29T18:07:41.330Z,20.80
2019-05-29T18:12:45.755Z,20.70
2019-05-29T18:17:50.214Z,20.60
2019-05-29T18:22:54.636Z,20.50
2019-05-29T18:27:59.077Z,20.40
2019-05-29T18:33:03.486Z,20.20
2019-05-29T18:38:07.957Z,20.10
2019-05-29T18:43:12.382Z,19.90
2019-05-29T18:48:16.792Z,19.80
2019-05-29T18:53:22.621Z,19.80
2019-05-29T18:58:28.178Z,19.70
2019-05-29T19:03:32.884Z,19.50
2019-05-29T19:08:37.350Z,19.30
2019-05-29T19:13:41.873Z,19.10
2019-05-29T19:18:46.278Z,18.90
2019-05-29T19:23:50.718Z,18.80
2019-05-29T19:28:55.116Z,18.70
2019-05-29T19:33:59.508Z,18.50
2019-05-29T19:39:05.082Z,18.40
2019-05-29T19:44:09.565Z,18.30
2019-05-29T19:49:13.978Z,18.20
2019-05-29T19:54:18.403Z,18.10
2019-05-29T19:59:22.871Z,18.10
2019-05-29T20:04:28.420Z,18.00
2019-05-29T20:09:59.690Z,18.00
2019-05-29T20:15:13.391Z,17.90
2019-05-29T20:20:38.742Z,17.80
2019-05-29T20:25:44.929Z,17.70
2019-05-29T20:31:16.013Z,17.60
2019-05-29T20:36:16.865Z,17.50
2019-05-29T20:41:33.824Z,17.40
2019-05-29T20:46:48.680Z,17.40
2019-05-29T20:52:14.023Z,17.30
2019-05-29T20:57:27.898Z,17.20
2019-05-29T21:07:56.703Z,17.20
2019-05-29T21:13:12.498Z,17.20
2019-05-29T21:18:36.171Z,17.20
2019-05-29T21:23:38.325Z,17.10
2019-05-29T21:28:50.813Z,17.20
2019-05-29T21:33:56.839Z,17.10
2019-05-29T21:39:11.367Z,17.10
2019-05-29T21:44:27.820Z,17.10
2019-05-29T21:49:41.000Z,17.00
2019-05-29T21:55:57.241Z,17.00
2019-05-29T22:06:27.230Z,17.00
2019-05-29T22:11:54.277Z,17.00
2019-05-29T22:16:53.332Z,17.00
2019-05-29T22:22:08.833Z,17.00
2019-05-29T22:27:22.725Z,16.90
2019-05-29T22:32:39.011Z,17.00
2019-05-29T22:37:42.593Z,16.90
2019-05-29T22:42:58.115Z,16.90
2019-05-29T22:48:11.959Z,16.80
2019-05-29T22:53:21.892Z,16.80
2019-05-29T22:58:44.384Z,16.80
2019-05-29T23:03:43.574Z,16.80
2019-05-29T23:09:12.235Z,16.80
2019-05-29T23:14:31.109Z,16.70
2019-05-29T23:19:42.073Z,16.70
2019-05-29T23:25:18.241Z,16.60
2019-05-29T23:30:08.335Z,16.60
2019-05-29T23:35:17.890Z,16.60
2019-05-29T23:40:24.066Z,16.60
2019-05-29T23:45:37.131Z,16.60
2019-05-29T23:50:49.789Z,16.50
2019-05-29T23:55:59.735Z,16.50
